sensor_id;sensor_type;location;lat;lon;timestamp;P1;durP1;ratioP1;P2;durP2;ratioP2
24729;SDS011;12832;52.392;13.066;2023-03-03T00:01:56;1.40;;;1.30;;
24729;SDS011;12832;52.392;13.066;2023-03-03T00:04:24;1.38;;;1.27;;
24729;SDS011;12832;52.392;13.066;2023-03-03T00:06:52;1.27;;;1.17;;
24729;SDS011;12832;52.392;13.066;2023-03-03T00:09:23;1.40;;;1.30;;
24729;SDS011;12832;52.392;13.066;2023-03-03T00:11:56;1.33;;;1.23;;
24729;SDS011;12832;52.392;13.066;2023-03-03T00:16:59;1.40;;;1.30;;
24729;SDS011;12832;52.392;13.066;2023-03-03T00:19:42;1.90;;;1.38;;
24729;SDS011;12832;52.392;13.066;2023-03-03T00:22:19;1.42;;;1.33;;
24729;SDS011;12832;52.392;13.066;2023-03-03T00:24:54;1.38;;;1.27;;
24729;SDS011;12832;52.392;13.066;2023-03-03T00:27:42;1.52;;;1.42;;
24729;SDS011;12832;52.392;13.066;2023-03-03T00:30:16;1.40;;;1.30;;
24729;SDS011;12832;52.392;13.066;2023-03-03T00:32:54;1.27;;;1.17;;
24729;SDS011;12832;52.392;13.066;2023-03-03T00:35:25;1.30;;;1.20;;
24729;SDS011;12832;52.392;13.066;2023-03-03T00:37:57;2.17;;;1.20;;
24729;SDS011;12832;52.392;13.066;2023-03-03T00:40:32;1.58;;;1.48;;
24729;SDS011;12832;52.392;13.066;2023-03-03T00:43:24;1.50;;;1.40;;
24729;SDS011;12832;52.392;13.066;2023-03-03T00:46:00;1.30;;;1.20;;
24729;SDS011;12832;52.392;13.066;2023-03-03T00:51:35;1.30;;;1.20;;
24729;SDS011;12832;52.392;13.066;2023-03-03T00:54:04;1.30;;;1.20;;
24729;SDS011;12832;52.392;13.066;2023-03-03T00:56:31;1.30;;;1.20;;
24729;SDS011;12832;52.392;13.066;2023-03-03T00:59:00;1.25;;;1.15;;
24729;SDS011;12832;52.392;13.066;2023-03-03T01:01:27;1.15;;;1.13;;
24729;SDS011;12832;52.392;13.066;2023-03-03T01:03:55;1.40;;;1.30;;
24729;SDS011;12832;52.392;13.066;2023-03-03T01:06:23;1.40;;;1.30;;
24729;SDS011;12832;52.392;13.066;2023-03-03T01:08:53;1.30;;;1.13;;
24729;SDS011;12832;52.392;13.066;2023-03-03T01:11:23;1.10;;;1.00;;
24729;SDS011;12832;52.392;13.066;2023-03-03T01:13:55;1.40;;;1.25;;
24729;SDS011;12832;52.392;13.066;2023-03-03T01:16:27;1.08;;;1.05;;
24729;SDS011;12832;52.392;13.066;2023-03-03T01:18:55;1.23;;;1.13;;
24729;SDS011;12832;52.392;13.066;2023-03-03T01:21:23;1.42;;;1.33;;
24729;SDS011;12832;52.392;13.066;2023-03-03T01:23:54;1.88;;;1.20;;
24729;SDS011;12832;52.392;13.066;2023-03-03T01:26:21;1.58;;;1.40;;
24729;SDS011;12832;52.392;13.066;2023-03-03T01:28:52;1.20;;;1.10;;
24729;SDS011;12832;52.392;13.066;2023-03-03T01:31:21;3.08;;;1.10;;
24729;SDS011;12832;52.392;13.066;2023-03-03T01:33:50;1.30;;;1.20;;
24729;SDS011;12832;52.392;13.066;2023-03-03T01:36:26;0.95;;;0.95;;
24729;SDS011;12832;52.392;13.066;2023-03-03T01:38:56;1.48;;;1.38;;
24729;SDS011;12832;52.392;13.066;2023-03-03T01:41:28;1.30;;;1.20;;
24729;SDS011;12832;52.392;13.066;2023-03-03T01:43:59;1.38;;;1.27;;
24729;SDS011;12832;52.392;13.066;2023-03-03T01:46:50;1.55;;;1.45;;
24729;SDS011;12832;52.392;13.066;2023-03-03T01:52:41;1.27;;;1.17;;
24729;SDS011;12832;52.392;13.066;2023-03-03T01:55:14;1.27;;;1.20;;
24729;SDS011;12832;52.392;13.066;2023-03-03T01:57:58;1.20;;;1.10;;
24729;SDS011;12832;52.392;13.066;2023-03-03T02:00:31;1.10;;;1.00;;
24729;SDS011;12832;52.392;13.066;2023-03-03T02:03:04;1.38;;;1.27;;
24729;SDS011;12832;52.392;13.066;2023-03-03T02:05:32;1.25;;;1.17;;
24729;SDS011;12832;52.392;13.066;2023-03-03T02:08:06;1.60;;;1.50;;
24729;SDS011;12832;52.392;13.066;2023-03-03T02:10:37;1.20;;;1.10;;
24729;SDS011;12832;52.392;13.066;2023-03-03T02:13:07;1.40;;;1.30;;
24729;SDS011;12832;52.392;13.066;2023-03-03T02:15:37;1.33;;;1.23;;
24729;SDS011;12832;52.392;13.066;2023-03-03T02:18:12;1.42;;;1.33;;
24729;SDS011;12832;52.392;13.066;2023-03-03T02:20:45;1.45;;;1.35;;
24729;SDS011;12832;52.392;13.066;2023-03-03T02:26:25;1.45;;;1.35;;
24729;SDS011;12832;52.392;13.066;2023-03-03T02:28:56;2.08;;;1.45;;
24729;SDS011;12832;52.392;13.066;2023-03-03T02:31:27;1.35;;;1.25;;
24729;SDS011;12832;52.392;13.066;2023-03-03T02:33:58;1.17;;;1.10;;
24729;SDS011;12832;52.392;13.066;2023-03-03T02:36:29;1.30;;;1.20;;
24729;SDS011;12832;52.392;13.066;2023-03-03T02:39:08;1.40;;;1.30;;
24729;SDS011;12832;52.392;13.066;2023-03-03T02:44:39;1.00;;;1.00;;
24729;SDS011;12832;52.392;13.066;2023-03-03T02:47:09;1.30;;;1.20;;
24729;SDS011;12832;52.392;13.066;2023-03-03T02:49:37;1.25;;;1.15;;
24729;SDS011;12832;52.392;13.066;2023-03-03T02:52:08;1.50;;;1.40;;
24729;SDS011;12832;52.392;13.066;2023-03-03T02:54:40;1.58;;;1.20;;
24729;SDS011;12832;52.392;13.066;2023-03-03T02:57:08;1.40;;;1.30;;
24729;SDS011;12832;52.392;13.066;2023-03-03T02:59:36;1.40;;;1.30;;
24729;SDS011;12832;52.392;13.066;2023-03-03T03:02:08;1.33;;;1.23;;
24729;SDS011;12832;52.392;13.066;2023-03-03T03:04:38;1.00;;;1.00;;
24729;SDS011;12832;52.392;13.066;2023-03-03T03:07:07;1.23;;;1.10;;
24729;SDS011;12832;52.392;13.066;2023-03-03T03:09:35;1.30;;;1.20;;
24729;SDS011;12832;52.392;13.066;2023-03-03T03:12:02;1.25;;;1.15;;
24729;SDS011;12832;52.392;13.066;2023-03-03T03:14:31;1.35;;;1.25;;
24729;SDS011;12832;52.392;13.066;2023-03-03T03:17:01;1.35;;;1.10;;
24729;SDS011;12832;52.392;13.066;2023-03-03T03:19:27;1.23;;;1.20;;
24729;SDS011;12832;52.392;13.066;2023-03-03T03:21:54;1.30;;;1.20;;
24729;SDS011;12832;52.392;13.066;2023-03-03T03:24:23;1.10;;;1.10;;
24729;SDS011;12832;52.392;13.066;2023-03-03T03:26:54;1.25;;;1.15;;
24729;SDS011;12832;52.392;13.066;2023-03-03T03:29:24;1.17;;;1.15;;
24729;SDS011;12832;52.392;13.066;2023-03-03T03:31:51;1.27;;;1.17;;
24729;SDS011;12832;52.392;13.066;2023-03-03T03:34:19;1.33;;;1.23;;
24729;SDS011;12832;52.392;13.066;2023-03-03T03:36:51;1.20;;;1.10;;
24729;SDS011;12832;52.392;13.066;2023-03-03T03:39:18;1.55;;;1.42;;
24729;SDS011;12832;52.392;13.066;2023-03-03T03:41:48;1.38;;;1.27;;
24729;SDS011;12832;52.392;13.066;2023-03-03T03:44:17;1.30;;;1.20;;
24729;SDS011;12832;52.392;13.066;2023-03-03T03:46:45;1.23;;;1.13;;
24729;SDS011;12832;52.392;13.066;2023-03-03T03:49:17;1.30;;;1.20;;
24729;SDS011;12832;52.392;13.066;2023-03-03T03:51:47;1.38;;;1.27;;
24729;SDS011;12832;52.392;13.066;2023-03-03T03:54:16;1.30;;;1.20;;
24729;SDS011;12832;52.392;13.066;2023-03-03T03:56:44;1.30;;;1.20;;
24729;SDS011;12832;52.392;13.066;2023-03-03T03:59:12;1.30;;;1.20;;
24729;SDS011;12832;52.392;13.066;2023-03-03T04:01:40;1.30;;;1.20;;
24729;SDS011;12832;52.392;13.066;2023-03-03T04:04:10;1.27;;;1.17;;
24729;SDS011;12832;52.392;13.066;2023-03-03T04:06:40;1.40;;;1.30;;
24729;SDS011;12832;52.392;13.066;2023-03-03T04:09:09;1.20;;;1.10;;
24729;SDS011;12832;52.392;13.066;2023-03-03T04:11:37;1.17;;;1.15;;
24729;SDS011;12832;52.392;13.066;2023-03-03T04:14:04;1.15;;;1.08;;
24729;SDS011;12832;52.392;13.066;2023-03-03T04:16:32;1.20;;;1.10;;
24729;SDS011;12832;52.392;13.066;2023-03-03T04:19:02;1.20;;;1.10;;
24729;SDS011;12832;52.392;13.066;2023-03-03T04:21:29;1.20;;;1.10;;
24729;SDS011;12832;52.392;13.066;2023-03-03T04:23:56;1.20;;;1.10;;
24729;SDS011;12832;52.392;13.066;2023-03-03T04:26:29;1.38;;;1.23;;
24729;SDS011;12832;52.392;13.066;2023-03-03T04:28:57;1.42;;;1.33;;
24729;SDS011;12832;52.392;13.066;2023-03-03T04:31:28;1.88;;;1.40;;
24729;SDS011;12832;52.392;13.066;2023-03-03T04:33:56;1.40;;;1.30;;
24729;SDS011;12832;52.392;13.066;2023-03-03T04:36:23;1.55;;;1.45;;
24729;SDS011;12832;52.392;13.066;2023-03-03T04:38:54;1.70;;;1.60;;
24729;SDS011;12832;52.392;13.066;2023-03-03T04:41:22;1.40;;;1.30;;
24729;SDS011;12832;52.392;13.066;2023-03-03T04:43:50;1.75;;;1.65;;
24729;SDS011;12832;52.392;13.066;2023-03-03T04:46:18;1.40;;;1.30;;
24729;SDS011;12832;52.392;13.066;2023-03-03T04:48:46;1.60;;;1.50;;
24729;SDS011;12832;52.392;13.066;2023-03-03T04:51:14;1.70;;;1.60;;
24729;SDS011;12832;52.392;13.066;2023-03-03T04:53:43;1.38;;;1.27;;
24729;SDS011;12832;52.392;13.066;2023-03-03T04:56:12;1.42;;;1.33;;
24729;SDS011;12832;52.392;13.066;2023-03-03T04:58:40;1.60;;;1.50;;
24729;SDS011;12832;52.392;13.066;2023-03-03T05:01:10;1.40;;;1.30;;
24729;SDS011;12832;52.392;13.066;2023-03-03T05:03:40;1.50;;;1.40;;
24729;SDS011;12832;52.392;13.066;2023-03-03T05:06:07;1.45;;;1.35;;
24729;SDS011;12832;52.392;13.066;2023-03-03T05:08:35;1.40;;;1.30;;
24729;SDS011;12832;52.392;13.066;2023-03-03T05:11:04;1.65;;;1.55;;
24729;SDS011;12832;52.392;13.066;2023-03-03T05:13:32;1.95;;;1.40;;
24729;SDS011;12832;52.392;13.066;2023-03-03T05:15:58;1.40;;;1.30;;
24729;SDS011;12832;52.392;13.066;2023-03-03T05:18:26;1.70;;;1.40;;
24729;SDS011;12832;52.392;13.066;2023-03-03T05:20:54;1.38;;;1.27;;
24729;SDS011;12832;52.392;13.066;2023-03-03T05:23:22;1.40;;;1.30;;
24729;SDS011;12832;52.392;13.066;2023-03-03T05:25:50;1.55;;;1.45;;
24729;SDS011;12832;52.392;13.066;2023-03-03T05:28:19;1.35;;;1.10;;
24729;SDS011;12832;52.392;13.066;2023-03-03T05:30:46;1.38;;;1.27;;
24729;SDS011;12832;52.392;13.066;2023-03-03T05:33:15;1.10;;;1.00;;
24729;SDS011;12832;52.392;13.066;2023-03-03T05:35:56;1.27;;;1.17;;
24729;SDS011;12832;52.392;13.066;2023-03-03T05:38:24;1.02;;;1.02;;
24729;SDS011;12832;52.392;13.066;2023-03-03T05:40:50;0.93;;;0.93;;
24729;SDS011;12832;52.392;13.066;2023-03-03T05:43:18;0.90;;;0.90;;
24729;SDS011;12832;52.392;13.066;2023-03-03T05:45:54;1.05;;;1.00;;
24729;SDS011;12832;52.392;13.066;2023-03-03T05:48:22;1.42;;;1.33;;
24729;SDS011;12832;52.392;13.066;2023-03-03T05:50:49;1.20;;;1.10;;
24729;SDS011;12832;52.392;13.066;2023-03-03T05:53:16;1.10;;;1.02;;
24729;SDS011;12832;52.392;13.066;2023-03-03T05:55:43;1.02;;;1.02;;
24729;SDS011;12832;52.392;13.066;2023-03-03T05:58:11;1.20;;;1.10;;
24729;SDS011;12832;52.392;13.066;2023-03-03T06:00:37;2.28;;;1.13;;
24729;SDS011;12832;52.392;13.066;2023-03-03T06:03:04;1.20;;;1.05;;
24729;SDS011;12832;52.392;13.066;2023-03-03T06:05:31;1.50;;;1.40;;
24729;SDS011;12832;52.392;13.066;2023-03-03T06:07:57;1.55;;;1.45;;
24729;SDS011;12832;52.392;13.066;2023-03-03T06:10:24;2.63;;;1.65;;
24729;SDS011;12832;52.392;13.066;2023-03-03T06:12:51;2.70;;;2.25;;
24729;SDS011;12832;52.392;13.066;2023-03-03T06:15:18;2.38;;;2.17;;
24729;SDS011;12832;52.392;13.066;2023-03-03T06:17:45;2.22;;;2.03;;
24729;SDS011;12832;52.392;13.066;2023-03-03T06:20:12;2.00;;;1.90;;
24729;SDS011;12832;52.392;13.066;2023-03-03T06:22:39;1.90;;;1.80;;
24729;SDS011;12832;52.392;13.066;2023-03-03T06:25:06;1.60;;;1.50;;
24729;SDS011;12832;52.392;13.066;2023-03-03T06:27:34;1.40;;;1.30;;
24729;SDS011;12832;52.392;13.066;2023-03-03T06:30:01;1.60;;;1.50;;
24729;SDS011;12832;52.392;13.066;2023-03-03T06:32:29;1.52;;;1.42;;
24729;SDS011;12832;52.392;13.066;2023-03-03T06:34:55;1.33;;;1.23;;
24729;SDS011;12832;52.392;13.066;2023-03-03T06:37:22;1.38;;;1.27;;
24729;SDS011;12832;52.392;13.066;2023-03-03T06:39:49;1.17;;;1.10;;
24729;SDS011;12832;52.392;13.066;2023-03-03T06:42:17;1.38;;;1.27;;
24729;SDS011;12832;52.392;13.066;2023-03-03T06:44:44;1.58;;;1.48;;
24729;SDS011;12832;52.392;13.066;2023-03-03T06:47:12;1.38;;;1.27;;
24729;SDS011;12832;52.392;13.066;2023-03-03T06:49:38;1.88;;;1.63;;
24729;SDS011;12832;52.392;13.066;2023-03-03T06:52:13;2.22;;;1.95;;
24729;SDS011;12832;52.392;13.066;2023-03-03T06:54:43;2.28;;;1.85;;
24729;SDS011;12832;52.392;13.066;2023-03-03T06:57:17;1.90;;;1.70;;
24729;SDS011;12832;52.392;13.066;2023-03-03T06:59:52;1.83;;;1.73;;
24729;SDS011;12832;52.392;13.066;2023-03-03T07:02:22;2.08;;;1.92;;
24729;SDS011;12832;52.392;13.066;2023-03-03T07:04:50;1.73;;;1.63;;
24729;SDS011;12832;52.392;13.066;2023-03-03T07:07:19;2.38;;;2.17;;
24729;SDS011;12832;52.392;13.066;2023-03-03T07:09:54;2.35;;;2.15;;
24729;SDS011;12832;52.392;13.066;2023-03-03T07:12:23;2.30;;;2.10;;
24729;SDS011;12832;52.392;13.066;2023-03-03T07:15:11;1.77;;;1.67;;
24729;SDS011;12832;52.392;13.066;2023-03-03T07:17:46;1.90;;;1.80;;
24729;SDS011;12832;52.392;13.066;2023-03-03T07:20:17;1.70;;;1.60;;
24729;SDS011;12832;52.392;13.066;2023-03-03T07:22:49;1.40;;;1.30;;
24729;SDS011;12832;52.392;13.066;2023-03-03T07:25:28;1.40;;;1.30;;
24729;SDS011;12832;52.392;13.066;2023-03-03T07:27:59;1.35;;;1.25;;
24729;SDS011;12832;52.392;13.066;2023-03-03T07:30:38;1.40;;;1.30;;
24729;SDS011;12832;52.392;13.066;2023-03-03T07:33:10;1.40;;;1.30;;
24729;SDS011;12832;52.392;13.066;2023-03-03T07:35:45;1.30;;;1.20;;
24729;SDS011;12832;52.392;13.066;2023-03-03T07:38:16;2.85;;;1.30;;
24729;SDS011;12832;52.392;13.066;2023-03-03T07:40:51;1.45;;;1.17;;
24729;SDS011;12832;52.392;13.066;2023-03-03T07:48:41;2.13;;;1.60;;
24729;SDS011;12832;52.392;13.066;2023-03-03T07:56:58;1.92;;;1.35;;
24729;SDS011;12832;52.392;13.066;2023-03-03T07:59:50;1.48;;;1.38;;
24729;SDS011;12832;52.392;13.066;2023-03-03T08:10:57;1.60;;;1.50;;
24729;SDS011;12832;52.392;13.066;2023-03-03T08:16:03;1.27;;;1.17;;
24729;SDS011;12832;52.392;13.066;2023-03-03T08:18:52;3.20;;;1.75;;
24729;SDS011;12832;52.392;13.066;2023-03-03T08:21:28;2.78;;;1.60;;
24729;SDS011;12832;52.392;13.066;2023-03-03T08:23:57;1.63;;;1.40;;
24729;SDS011;12832;52.392;13.066;2023-03-03T08:26:25;1.50;;;1.40;;
24729;SDS011;12832;52.392;13.066;2023-03-03T08:28:53;1.98;;;1.50;;
24729;SDS011;12832;52.392;13.066;2023-03-03T08:31:20;2.88;;;1.65;;
24729;SDS011;12832;52.392;13.066;2023-03-03T08:34:05;1.58;;;1.48;;
24729;SDS011;12832;52.392;13.066;2023-03-03T08:36:32;1.50;;;1.40;;
24729;SDS011;12832;52.392;13.066;2023-03-03T08:39:00;1.70;;;1.60;;
24729;SDS011;12832;52.392;13.066;2023-03-03T08:41:29;2.95;;;1.77;;
24729;SDS011;12832;52.392;13.066;2023-03-03T08:43:57;1.65;;;1.55;;
24729;SDS011;12832;52.392;13.066;2023-03-03T08:46:24;2.10;;;1.90;;
24729;SDS011;12832;52.392;13.066;2023-03-03T08:48:51;1.60;;;1.50;;
24729;SDS011;12832;52.392;13.066;2023-03-03T08:51:19;1.92;;;1.70;;
24729;SDS011;12832;52.392;13.066;2023-03-03T08:53:46;2.53;;;1.70;;
24729;SDS011;12832;52.392;13.066;2023-03-03T08:56:14;2.20;;;2.00;;
24729;SDS011;12832;52.392;13.066;2023-03-03T08:58:45;2.20;;;2.00;;
24729;SDS011;12832;52.392;13.066;2023-03-03T09:01:30;2.30;;;2.10;;
24729;SDS011;12832;52.392;13.066;2023-03-03T09:03:59;2.17;;;1.98;;
24729;SDS011;12832;52.392;13.066;2023-03-03T09:06:27;1.88;;;1.70;;
24729;SDS011;12832;52.392;13.066;2023-03-03T09:08:55;2.97;;;1.70;;
24729;SDS011;12832;52.392;13.066;2023-03-03T09:11:25;1.67;;;1.58;;
24729;SDS011;12832;52.392;13.066;2023-03-03T09:13:55;2.05;;;1.83;;
24729;SDS011;12832;52.392;13.066;2023-03-03T09:16:48;2.00;;;1.65;;
24729;SDS011;12832;52.392;13.066;2023-03-03T09:24:51;1.67;;;1.58;;
24729;SDS011;12832;52.392;13.066;2023-03-03T09:27:29;2.00;;;1.80;;
24729;SDS011;12832;52.392;13.066;2023-03-03T09:30:00;2.00;;;1.80;;
24729;SDS011;12832;52.392;13.066;2023-03-03T09:32:42;1.45;;;1.35;;
24729;SDS011;12832;52.392;13.066;2023-03-03T09:37:57;4.00;;;1.88;;
24729;SDS011;12832;52.392;13.066;2023-03-03T09:43:10;1.50;;;1.40;;
24729;SDS011;12832;52.392;13.066;2023-03-03T09:46:08;2.92;;;1.60;;
24729;SDS011;12832;52.392;13.066;2023-03-03T09:49:24;1.90;;;1.73;;
24729;SDS011;12832;52.392;13.066;2023-03-03T09:57:36;1.63;;;1.40;;
24729;SDS011;12832;52.392;13.066;2023-03-03T10:00:24;1.70;;;1.60;;
24729;SDS011;12832;52.392;13.066;2023-03-03T10:11:37;2.40;;;1.70;;
24729;SDS011;12832;52.392;13.066;2023-03-03T10:17:21;1.80;;;1.70;;
24729;SDS011;12832;52.392;13.066;2023-03-03T10:22:52;2.38;;;2.08;;
24729;SDS011;12832;52.392;13.066;2023-03-03T10:34:22;2.30;;;2.10;;
24729;SDS011;12832;52.392;13.066;2023-03-03T10:37:17;2.58;;;2.15;;
24729;SDS011;12832;52.392;13.066;2023-03-03T10:45:26;1.98;;;1.77;;
24729;SDS011;12832;52.392;13.066;2023-03-03T10:48:23;3.22;;;1.88;;
24729;SDS011;12832;52.392;13.066;2023-03-03T11:02:31;2.22;;;2.03;;
24729;SDS011;12832;52.392;13.066;2023-03-03T11:05:24;2.53;;;2.22;;
24729;SDS011;12832;52.392;13.066;2023-03-03T11:08:20;2.47;;;1.92;;
24729;SDS011;12832;52.392;13.066;2023-03-03T11:13:52;5.78;;;2.50;;
24729;SDS011;12832;52.392;13.066;2023-03-03T11:16:56;2.83;;;2.00;;
24729;SDS011;12832;52.392;13.066;2023-03-03T11:22:14;2.20;;;2.00;;
24729;SDS011;12832;52.392;13.066;2023-03-03T11:31:02;2.70;;;2.50;;
24729;SDS011;12832;52.392;13.066;2023-03-03T11:34:17;2.92;;;2.25;;
24729;SDS011;12832;52.392;13.066;2023-03-03T11:36:43;2.95;;;2.72;;
24729;SDS011;12832;52.392;13.066;2023-03-03T11:39:23;5.25;;;2.15;;
24729;SDS011;12832;52.392;13.066;2023-03-03T11:41:59;3.97;;;2.63;;
24729;SDS011;12832;52.392;13.066;2023-03-03T11:48:49;4.45;;;3.03;;
24729;SDS011;12832;52.392;13.066;2023-03-03T11:51:13;4.22;;;3.13;;
24729;SDS011;12832;52.392;13.066;2023-03-03T11:54:08;2.60;;;2.40;;
24729;SDS011;12832;52.392;13.066;2023-03-03T11:57:04;4.88;;;2.83;;
24729;SDS011;12832;52.392;13.066;2023-03-03T11:59:46;5.95;;;2.90;;
24729;SDS011;12832;52.392;13.066;2023-03-03T12:02:33;4.43;;;2.47;;
24729;SDS011;12832;52.392;13.066;2023-03-03T12:05:46;3.30;;;2.58;;
24729;SDS011;12832;52.392;13.066;2023-03-03T12:08:57;3.78;;;3.08;;
24729;SDS011;12832;52.392;13.066;2023-03-03T12:11:53;3.10;;;2.80;;
24729;SDS011;12832;52.392;13.066;2023-03-03T12:14:53;3.40;;;3.10;;
24729;SDS011;12832;52.392;13.066;2023-03-03T12:17:48;4.25;;;2.67;;
24729;SDS011;12832;52.392;13.066;2023-03-03T12:31:47;2.65;;;2.40;;
24729;SDS011;12832;52.392;13.066;2023-03-03T12:35:34;3.53;;;2.95;;
24729;SDS011;12832;52.392;13.066;2023-03-03T12:41:02;3.63;;;2.58;;
24729;SDS011;12832;52.392;13.066;2023-03-03T12:43:42;5.20;;;2.75;;
24729;SDS011;12832;52.392;13.066;2023-03-03T13:06:26;4.32;;;2.92;;
24729;SDS011;12832;52.392;13.066;2023-03-03T13:12:15;3.72;;;3.03;;
24729;SDS011;12832;52.392;13.066;2023-03-03T13:15:10;5.05;;;3.25;;
24729;SDS011;12832;52.392;13.066;2023-03-03T13:20:49;4.05;;;2.75;;
24729;SDS011;12832;52.392;13.066;2023-03-03T13:23:54;5.15;;;2.90;;
24729;SDS011;12832;52.392;13.066;2023-03-03T13:26:32;4.13;;;2.53;;
24729;SDS011;12832;52.392;13.066;2023-03-03T13:29:14;3.05;;;2.75;;
24729;SDS011;12832;52.392;13.066;2023-03-03T13:31:53;4.68;;;2.50;;
24729;SDS011;12832;52.392;13.066;2023-03-03T13:37:44;4.30;;;2.50;;
24729;SDS011;12832;52.392;13.066;2023-03-03T13:40:16;3.55;;;2.88;;
24729;SDS011;12832;52.392;13.066;2023-03-03T13:42:57;2.60;;;2.40;;
24729;SDS011;12832;52.392;13.066;2023-03-03T13:49:07;4.95;;;2.65;;
24729;SDS011;12832;52.392;13.066;2023-03-03T13:51:47;3.08;;;2.70;;
24729;SDS011;12832;52.392;13.066;2023-03-03T14:05:45;2.97;;;2.60;;
24729;SDS011;12832;52.392;13.066;2023-03-03T14:11:10;3.53;;;2.72;;
24729;SDS011;12832;52.392;13.066;2023-03-03T14:19:36;2.55;;;2.30;;
24729;SDS011;12832;52.392;13.066;2023-03-03T14:22:16;3.55;;;2.40;;
24729;SDS011;12832;52.392;13.066;2023-03-03T14:27:39;4.20;;;2.47;;
24729;SDS011;12832;52.392;13.066;2023-03-03T14:35:31;3.92;;;2.50;;
24729;SDS011;12832;52.392;13.066;2023-03-03T14:38:11;3.33;;;2.20;;
24729;SDS011;12832;52.392;13.066;2023-03-03T14:40:45;2.42;;;2.17;;
24729;SDS011;12832;52.392;13.066;2023-03-03T14:43:21;4.90;;;2.47;;
24729;SDS011;12832;52.392;13.066;2023-03-03T14:45:56;3.20;;;2.10;;
24729;SDS011;12832;52.392;13.066;2023-03-03T14:49:03;3.55;;;2.63;;
24729;SDS011;12832;52.392;13.066;2023-03-03T14:51:46;3.17;;;2.30;;
24729;SDS011;12832;52.392;13.066;2023-03-03T14:54:23;3.10;;;2.25;;
24729;SDS011;12832;52.392;13.066;2023-03-03T14:56:58;2.80;;;2.08;;
24729;SDS011;12832;52.392;13.066;2023-03-03T14:59:34;2.80;;;2.13;;
24729;SDS011;12832;52.392;13.066;2023-03-03T15:04:44;3.20;;;2.00;;
24729;SDS011;12832;52.392;13.066;2023-03-03T15:07:27;2.33;;;2.13;;
24729;SDS011;12832;52.392;13.066;2023-03-03T15:10:03;3.05;;;2.03;;
24729;SDS011;12832;52.392;13.066;2023-03-03T15:12:36;3.30;;;2.05;;
24729;SDS011;12832;52.392;13.066;2023-03-03T15:17:53;2.38;;;1.75;;
24729;SDS011;12832;52.392;13.066;2023-03-03T15:26:05;3.30;;;2.22;;
24729;SDS011;12832;52.392;13.066;2023-03-03T16:03:31;2.28;;;2.00;;
24729;SDS011;12832;52.392;13.066;2023-03-03T16:06:06;2.20;;;1.92;;
24729;SDS011;12832;52.392;13.066;2023-03-03T16:08:53;2.15;;;1.50;;
24729;SDS011;12832;52.392;13.066;2023-03-03T16:17:16;2.88;;;1.50;;
24729;SDS011;12832;52.392;13.066;2023-03-03T16:25:17;1.58;;;1.40;;
24729;SDS011;12832;52.392;13.066;2023-03-03T16:31:12;1.20;;;1.10;;
24729;SDS011;12832;52.392;13.066;2023-03-03T16:42:36;1.25;;;1.15;;
24729;SDS011;12832;52.392;13.066;2023-03-03T16:45:16;1.10;;;1.00;;
24729;SDS011;12832;52.392;13.066;2023-03-03T16:50:53;1.30;;;1.17;;
24729;SDS011;12832;52.392;13.066;2023-03-03T16:53:36;1.00;;;0.90;;
24729;SDS011;12832;52.392;13.066;2023-03-03T16:56:20;0.98;;;0.95;;
24729;SDS011;12832;52.392;13.066;2023-03-03T17:01:41;1.05;;;0.95;;
24729;SDS011;12832;52.392;13.066;2023-03-03T17:04:41;1.02;;;1.00;;
24729;SDS011;12832;52.392;13.066;2023-03-03T17:13:04;1.38;;;0.98;;
24729;SDS011;12832;52.392;13.066;2023-03-03T17:16:08;1.08;;;0.98;;
24729;SDS011;12832;52.392;13.066;2023-03-03T17:22:20;1.20;;;1.10;;
24729;SDS011;12832;52.392;13.066;2023-03-03T17:43:51;1.13;;;1.02;;
24729;SDS011;12832;52.392;13.066;2023-03-03T17:46:35;0.80;;;0.80;;
24729;SDS011;12832;52.392;13.066;2023-03-03T17:49:27;0.82;;;0.80;;
24729;SDS011;12832;52.392;13.066;2023-03-03T18:08:45;0.73;;;0.70;;
24729;SDS011;12832;52.392;13.066;2023-03-03T18:14:52;1.48;;;0.70;;
24729;SDS011;12832;52.392;13.066;2023-03-03T18:18:30;1.00;;;0.90;;
24729;SDS011;12832;52.392;13.066;2023-03-03T18:23:39;0.60;;;0.60;;
24729;SDS011;12832;52.392;13.066;2023-03-03T18:29:08;0.50;;;0.50;;
24729;SDS011;12832;52.392;13.066;2023-03-03T18:31:47;0.60;;;0.60;;
24729;SDS011;12832;52.392;13.066;2023-03-03T18:36:50;0.75;;;0.70;;
24729;SDS011;12832;52.392;13.066;2023-03-03T18:39:42;0.75;;;0.75;;
24729;SDS011;12832;52.392;13.066;2023-03-03T18:44:45;0.60;;;0.60;;
24729;SDS011;12832;52.392;13.066;2023-03-03T18:47:15;0.80;;;0.60;;
24729;SDS011;12832;52.392;13.066;2023-03-03T18:49:48;0.65;;;0.63;;
24729;SDS011;12832;52.392;13.066;2023-03-03T18:55:42;0.80;;;0.80;;
24729;SDS011;12832;52.392;13.066;2023-03-03T19:00:47;0.80;;;0.80;;
24729;SDS011;12832;52.392;13.066;2023-03-03T19:03:27;0.82;;;0.80;;
24729;SDS011;12832;52.392;13.066;2023-03-03T19:06:30;0.70;;;0.70;;
24729;SDS011;12832;52.392;13.066;2023-03-03T19:09:05;0.68;;;0.68;;
24729;SDS011;12832;52.392;13.066;2023-03-03T19:14:13;0.70;;;0.70;;
24729;SDS011;12832;52.392;13.066;2023-03-03T19:20:09;0.70;;;0.70;;
24729;SDS011;12832;52.392;13.066;2023-03-03T19:22:50;1.00;;;0.77;;
24729;SDS011;12832;52.392;13.066;2023-03-03T19:25:33;1.02;;;1.02;;
24729;SDS011;12832;52.392;13.066;2023-03-03T19:30:42;0.80;;;0.80;;
24729;SDS011;12832;52.392;13.066;2023-03-03T19:39:42;0.80;;;0.70;;
24729;SDS011;12832;52.392;13.066;2023-03-03T19:45:33;1.45;;;1.13;;
24729;SDS011;12832;52.392;13.066;2023-03-03T19:48:07;1.10;;;0.95;;
24729;SDS011;12832;52.392;13.066;2023-03-03T19:53:37;0.90;;;0.90;;
24729;SDS011;12832;52.392;13.066;2023-03-03T20:02:25;0.80;;;0.73;;
24729;SDS011;12832;52.392;13.066;2023-03-03T20:13:45;1.25;;;1.05;;
24729;SDS011;12832;52.392;13.066;2023-03-03T20:16:39;1.30;;;0.95;;
24729;SDS011;12832;52.392;13.066;2023-03-03T20:24:34;0.90;;;0.90;;
24729;SDS011;12832;52.392;13.066;2023-03-03T20:27:37;0.90;;;0.90;;
24729;SDS011;12832;52.392;13.066;2023-03-03T20:33:51;0.90;;;0.90;;
24729;SDS011;12832;52.392;13.066;2023-03-03T20:36:44;1.52;;;0.90;;
24729;SDS011;12832;52.392;13.066;2023-03-03T20:45:01;1.38;;;1.25;;
24729;SDS011;12832;52.392;13.066;2023-03-03T20:56:13;0.98;;;0.90;;
24729;SDS011;12832;52.392;13.066;2023-03-03T21:04:33;1.20;;;0.98;;
24729;SDS011;12832;52.392;13.066;2023-03-03T21:07:02;1.13;;;1.00;;
24729;SDS011;12832;52.392;13.066;2023-03-03T21:09:35;0.90;;;0.90;;
24729;SDS011;12832;52.392;13.066;2023-03-03T21:12:19;1.30;;;1.02;;
24729;SDS011;12832;52.392;13.066;2023-03-03T21:14:59;1.17;;;1.08;;
24729;SDS011;12832;52.392;13.066;2023-03-03T21:17:34;1.10;;;1.00;;
24729;SDS011;12832;52.392;13.066;2023-03-03T21:20:16;1.08;;;0.98;;
24729;SDS011;12832;52.392;13.066;2023-03-03T21:23:00;1.88;;;1.02;;
24729;SDS011;12832;52.392;13.066;2023-03-03T21:25:45;1.10;;;1.00;;
24729;SDS011;12832;52.392;13.066;2023-03-03T21:28:35;0.93;;;0.85;;
24729;SDS011;12832;52.392;13.066;2023-03-03T21:31:09;1.13;;;1.02;;
24729;SDS011;12832;52.392;13.066;2023-03-03T21:33:56;1.25;;;1.00;;
24729;SDS011;12832;52.392;13.066;2023-03-03T21:36:46;1.10;;;1.00;;
24729;SDS011;12832;52.392;13.066;2023-03-03T21:42:04;1.10;;;1.00;;
24729;SDS011;12832;52.392;13.066;2023-03-03T21:44:53;1.20;;;1.10;;
24729;SDS011;12832;52.392;13.066;2023-03-03T21:47:40;1.00;;;1.00;;
24729;SDS011;12832;52.392;13.066;2023-03-03T21:50:09;1.40;;;1.20;;
24729;SDS011;12832;52.392;13.066;2023-03-03T21:52:42;1.30;;;0.80;;
24729;SDS011;12832;52.392;13.066;2023-03-03T21:55:15;1.55;;;1.00;;